sensor_id;sensor_type;location;lat;lon;timestamp;temperature;humidity
19037;DHT22;9651;49.138;8.900;2022-09-17T00:02:12;11.20;99.90
19037;DHT22;9651;49.138;8.900;2022-09-17T00:06:14;11.20;99.90
19037;DHT22;9651;49.138;8.900;2022-09-17T00:10:16;11.20;99.90
19037;DHT22;9651;49.138;8.900;2022-09-17T00:14:19;11.20;99.90
19037;DHT22;9651;49.138;8.900;2022-09-17T00:18:21;11.20;99.90
19037;DHT22;9651;49.138;8.900;2022-09-17T00:22:23;11.20;99.90
19037;DHT22;9651;49.138;8.900;2022-09-17T00:26:26;11.10;99.90
19037;DHT22;9651;49.138;8.900;2022-09-17T00:30:29;11.10;99.90
19037;DHT22;9651;49.138;8.900;2022-09-17T00:34:31;11.10;99.90
19037;DHT22;9651;49.138;8.900;2022-09-17T00:38:34;11.10;99.90
19037;DHT22;9651;49.138;8.900;2022-09-17T00:42:36;11.00;99.90
19037;DHT22;9651;49.138;8.900;2022-09-17T00:46:41;11.00;99.90
19037;DHT22;9651;49.138;8.900;2022-09-17T00:50:44;10.90;99.90
19037;DHT22;9651;49.138;8.900;2022-09-17T00:54:52;10.90;99.90
19037;DHT22;9651;49.138;8.900;2022-09-17T00:58:55;10.90;99.90
19037;DHT22;9651;49.138;8.900;2022-09-17T01:02:58;10.90;99.90
19037;DHT22;9651;49.138;8.900;2022-09-17T01:07:07;11.00;99.90
19037;DHT22;9651;49.138;8.900;2022-09-17T01:11:27;11.00;99.90
19037;DHT22;9651;49.138;8.900;2022-09-17T01:15:37;10.80;99.90
19037;DHT22;9651;49.138;8.900;2022-09-17T01:20:05;10.80;99.90
19037;DHT22;9651;49.138;8.900;2022-09-17T01:28:41;10.80;99.90
19037;DHT22;9651;49.138;8.900;2022-09-17T01:32:51;10.80;99.90
19037;DHT22;9651;49.138;8.900;2022-09-17T01:37:02;10.70;99.90
19037;DHT22;9651;49.138;8.900;2022-09-17T01:41:07;10.60;99.90
19037;DHT22;9651;49.138;8.900;2022-09-17T01:45:17;10.50;99.90
19037;DHT22;9651;49.138;8.900;2022-09-17T01:49:24;10.60;99.90
19037;DHT22;9651;49.138;8.900;2022-09-17T01:53:30;10.60;99.90
19037;DHT22;9651;49.138;8.900;2022-09-17T01:57:39;10.60;99.90
19037;DHT22;9651;49.138;8.900;2022-09-17T02:01:45;10.60;99.90
19037;DHT22;9651;49.138;8.900;2022-09-17T02:05:53;10.60;99.90
19037;DHT22;9651;49.138;8.900;2022-09-17T02:09:59;10.60;99.90
19037;DHT22;9651;49.138;8.900;2022-09-17T02:14:06;10.60;99.90
19037;DHT22;9651;49.138;8.900;2022-09-17T02:18:18;10.60;99.90
19037;DHT22;9651;49.138;8.900;2022-09-17T02:22:30;10.60;99.90
19037;DHT22;9651;49.138;8.900;2022-09-17T02:26:39;10.60;99.90
19037;DHT22;9651;49.138;8.900;2022-09-17T02:30:41;10.60;99.90
19037;DHT22;9651;49.138;8.900;2022-09-17T02:34:43;10.60;99.90
19037;DHT22;9651;49.138;8.900;2022-09-17T02:38:47;10.60;99.90
19037;DHT22;9651;49.138;8.900;2022-09-17T02:43:02;10.50;99.90
19037;DHT22;9651;49.138;8.900;2022-09-17T02:51:34;10.50;99.90
19037;DHT22;9651;49.138;8.900;2022-09-17T02:55:45;10.40;99.90
19037;DHT22;9651;49.138;8.900;2022-09-17T02:59:55;10.40;99.90
19037;DHT22;9651;49.138;8.900;2022-09-17T03:04:01;10.40;99.90
19037;DHT22;9651;49.138;8.900;2022-09-17T03:08:07;10.40;99.90
19037;DHT22;9651;49.138;8.900;2022-09-17T03:12:12;10.30;99.90
19037;DHT22;9651;49.138;8.900;2022-09-17T03:16:14;10.40;99.90
19037;DHT22;9651;49.138;8.900;2022-09-17T03:20:16;10.30;99.90
19037;DHT22;9651;49.138;8.900;2022-09-17T03:24:18;10.30;99.90
19037;DHT22;9651;49.138;8.900;2022-09-17T03:28:21;10.20;99.90
19037;DHT22;9651;49.138;8.900;2022-09-17T03:32:24;10.20;99.90
19037;DHT22;9651;49.138;8.900;2022-09-17T03:36:26;10.20;99.90
19037;DHT22;9651;49.138;8.900;2022-09-17T03:40:28;10.10;99.90
19037;DHT22;9651;49.138;8.900;2022-09-17T03:44:31;10.10;99.90
19037;DHT22;9651;49.138;8.900;2022-09-17T03:48:33;10.10;99.90
19037;DHT22;9651;49.138;8.900;2022-09-17T03:52:36;10.10;99.90
19037;DHT22;9651;49.138;8.900;2022-09-17T03:56:38;10.10;99.90
19037;DHT22;9651;49.138;8.900;2022-09-17T04:00:41;10.10;99.90
19037;DHT22;9651;49.138;8.900;2022-09-17T04:04:43;10.00;99.90
19037;DHT22;9651;49.138;8.900;2022-09-17T04:08:45;10.00;99.90
19037;DHT22;9651;49.138;8.900;2022-09-17T04:12:47;10.10;99.90
19037;DHT22;9651;49.138;8.900;2022-09-17T04:16:50;10.10;99.90
19037;DHT22;9651;49.138;8.900;2022-09-17T04:20:52;10.10;99.90
19037;DHT22;9651;49.138;8.900;2022-09-17T04:24:54;10.10;99.90
19037;DHT22;9651;49.138;8.900;2022-09-17T04:28:55;10.10;99.90
19037;DHT22;9651;49.138;8.900;2022-09-17T04:32:59;10.10;99.90
19037;DHT22;9651;49.138;8.900;2022-09-17T04:37:00;10.10;99.90
19037;DHT22;9651;49.138;8.900;2022-09-17T04:41:05;10.00;99.90
19037;DHT22;9651;49.138;8.900;2022-09-17T04:45:08;10.00;99.90
19037;DHT22;9651;49.138;8.900;2022-09-17T04:49:11;10.00;99.90
19037;DHT22;9651;49.138;8.900;2022-09-17T04:53:13;10.00;99.90
19037;DHT22;9651;49.138;8.900;2022-09-17T04:57:15;10.00;99.90
19037;DHT22;9651;49.138;8.900;2022-09-17T05:01:16;9.90;99.90
19037;DHT22;9651;49.138;8.900;2022-09-17T05:05:21;9.90;99.90
19037;DHT22;9651;49.138;8.900;2022-09-17T05:09:23;9.90;99.90
19037;DHT22;9651;49.138;8.900;2022-09-17T05:13:25;9.90;99.90
19037;DHT22;9651;49.138;8.900;2022-09-17T05:17:27;9.90;99.90
19037;DHT22;9651;49.138;8.900;2022-09-17T05:21:30;9.90;99.90
19037;DHT22;9651;49.138;8.900;2022-09-17T05:25:32;10.00;99.90
19037;DHT22;9651;49.138;8.900;2022-09-17T05:29:34;10.10;99.90
19037;DHT22;9651;49.138;8.900;2022-09-17T05:33:36;10.20;99.90
19037;DHT22;9651;49.138;8.900;2022-09-17T05:37:39;10.20;99.90
19037;DHT22;9651;49.138;8.900;2022-09-17T05:41:41;10.20;99.90
19037;DHT22;9651;49.138;8.900;2022-09-17T05:45:43;10.40;99.90
19037;DHT22;9651;49.138;8.900;2022-09-17T05:49:46;10.50;99.90
19037;DHT22;9651;49.138;8.900;2022-09-17T05:53:49;10.50;99.90
19037;DHT22;9651;49.138;8.900;2022-09-17T05:57:51;10.50;99.90
19037;DHT22;9651;49.138;8.900;2022-09-17T06:01:53;10.50;99.90
19037;DHT22;9651;49.138;8.900;2022-09-17T06:05:56;10.50;99.90
19037;DHT22;9651;49.138;8.900;2022-09-17T06:09:59;10.60;99.90
19037;DHT22;9651;49.138;8.900;2022-09-17T06:14:01;10.70;99.90
19037;DHT22;9651;49.138;8.900;2022-09-17T06:18:03;10.60;99.90
19037;DHT22;9651;49.138;8.900;2022-09-17T06:22:05;10.60;99.90
19037;DHT22;9651;49.138;8.900;2022-09-17T06:26:08;10.60;99.90
19037;DHT22;9651;49.138;8.900;2022-09-17T06:30:10;10.50;99.90
19037;DHT22;9651;49.138;8.900;2022-09-17T06:34:12;10.50;99.90
19037;DHT22;9651;49.138;8.900;2022-09-17T06:38:14;10.60;99.90
19037;DHT22;9651;49.138;8.900;2022-09-17T06:42:18;10.60;99.90
19037;DHT22;9651;49.138;8.900;2022-09-17T06:46:19;10.60;99.90
19037;DHT22;9651;49.138;8.900;2022-09-17T06:50:21;10.50;99.90
19037;DHT22;9651;49.138;8.900;2022-09-17T06:54:24;10.40;99.90
19037;DHT22;9651;49.138;8.900;2022-09-17T06:58:28;10.40;99.90
19037;DHT22;9651;49.138;8.900;2022-09-17T07:02:30;10.60;99.90
19037;DHT22;9651;49.138;8.900;2022-09-17T07:06:32;10.70;99.90
19037;DHT22;9651;49.138;8.900;2022-09-17T07:10:33;10.90;99.90
19037;DHT22;9651;49.138;8.900;2022-09-17T07:14:37;10.80;99.90
19037;DHT22;9651;49.138;8.900;2022-09-17T07:18:38;10.80;99.90
19037;DHT22;9651;49.138;8.900;2022-09-17T07:22:40;10.90;99.90
19037;DHT22;9651;49.138;8.900;2022-09-17T07:26:42;11.00;99.90
19037;DHT22;9651;49.138;8.900;2022-09-17T07:30:46;11.00;99.90
19037;DHT22;9651;49.138;8.900;2022-09-17T07:34:47;11.10;99.90
19037;DHT22;9651;49.138;8.900;2022-09-17T07:38:49;11.30;99.90
19037;DHT22;9651;49.138;8.900;2022-09-17T07:42:51;11.50;99.90
19037;DHT22;9651;49.138;8.900;2022-09-17T07:46:55;11.50;99.90
19037;DHT22;9651;49.138;8.900;2022-09-17T07:50:57;11.60;99.90
19037;DHT22;9651;49.138;8.900;2022-09-17T07:54:59;11.80;99.90
19037;DHT22;9651;49.138;8.900;2022-09-17T07:59:01;12.20;99.90
19037;DHT22;9651;49.138;8.900;2022-09-17T08:03:04;12.60;99.90
19037;DHT22;9651;49.138;8.900;2022-09-17T08:07:06;13.00;99.90
19037;DHT22;9651;49.138;8.900;2022-09-17T08:11:13;13.20;99.90
19037;DHT22;9651;49.138;8.900;2022-09-17T08:15:16;13.20;99.90
19037;DHT22;9651;49.138;8.900;2022-09-17T08:19:20;13.60;99.90
19037;DHT22;9651;49.138;8.900;2022-09-17T08:23:22;13.80;99.90
19037;DHT22;9651;49.138;8.900;2022-09-17T08:27:24;13.70;99.90
19037;DHT22;9651;49.138;8.900;2022-09-17T08:31:26;13.30;99.90
19037;DHT22;9651;49.138;8.900;2022-09-17T08:35:30;13.20;99.90
19037;DHT22;9651;49.138;8.900;2022-09-17T08:39:32;13.20;99.90
19037;DHT22;9651;49.138;8.900;2022-09-17T08:43:38;13.20;99.90
19037;DHT22;9651;49.138;8.900;2022-09-17T08:47:41;13.30;99.90
19037;DHT22;9651;49.138;8.900;2022-09-17T08:51:56;13.60;99.90
19037;DHT22;9651;49.138;8.900;2022-09-17T08:56:06;13.90;99.90
19037;DHT22;9651;49.138;8.900;2022-09-17T09:00:11;14.10;99.90
19037;DHT22;9651;49.138;8.900;2022-09-17T09:04:53;14.30;99.90
19037;DHT22;9651;49.138;8.900;2022-09-17T09:09:02;14.30;99.90
19037;DHT22;9651;49.138;8.900;2022-09-17T09:13:06;14.40;99.90
19037;DHT22;9651;49.138;8.900;2022-09-17T09:17:09;15.00;99.90
19037;DHT22;9651;49.138;8.900;2022-09-17T09:21:25;15.40;99.90
19037;DHT22;9651;49.138;8.900;2022-09-17T09:25:35;15.50;99.90
19037;DHT22;9651;49.138;8.900;2022-09-17T09:29:47;15.60;99.90
19037;DHT22;9651;49.138;8.900;2022-09-17T09:33:57;15.50;99.90
19037;DHT22;9651;49.138;8.900;2022-09-17T09:38:03;15.50;99.90
19037;DHT22;9651;49.138;8.900;2022-09-17T09:42:13;15.40;99.90
19037;DHT22;9651;49.138;8.900;2022-09-17T09:50:44;15.70;99.90
19037;DHT22;9651;49.138;8.900;2022-09-17T09:54:59;16.20;99.90
19037;DHT22;9651;49.138;8.900;2022-09-17T09:59:07;17.30;99.90
19037;DHT22;9651;49.138;8.900;2022-09-17T10:03:14;17.70;99.90
19037;DHT22;9651;49.138;8.900;2022-09-17T10:07:17;18.90;99.90
19037;DHT22;9651;49.138;8.900;2022-09-17T10:11:20;19.40;99.90
19037;DHT22;9651;49.138;8.900;2022-09-17T10:15:26;19.00;99.90
19037;DHT22;9651;49.138;8.900;2022-09-17T10:19:28;17.80;99.90
19037;DHT22;9651;49.138;8.900;2022-09-17T10:23:33;17.00;99.90
19037;DHT22;9651;49.138;8.900;2022-09-17T10:27:37;16.70;99.90
19037;DHT22;9651;49.138;8.900;2022-09-17T10:31:49;16.90;99.90
19037;DHT22;9651;49.138;8.900;2022-09-17T10:36:00;18.10;99.90
19037;DHT22;9651;49.138;8.900;2022-09-17T10:40:27;18.70;99.90
19037;DHT22;9651;49.138;8.900;2022-09-17T10:44:31;18.10;99.90
19037;DHT22;9651;49.138;8.900;2022-09-17T10:48:39;17.30;99.90
19037;DHT22;9651;49.138;8.900;2022-09-17T10:52:46;16.50;99.90
19037;DHT22;9651;49.138;8.900;2022-09-17T10:56:52;15.70;99.90
19037;DHT22;9651;49.138;8.900;2022-09-17T11:01:01;14.90;99.90
19037;DHT22;9651;49.138;8.900;2022-09-17T11:05:21;14.90;99.90
19037;DHT22;9651;49.138;8.900;2022-09-17T11:09:34;17.10;99.90
19037;DHT22;9651;49.138;8.900;2022-09-17T11:13:43;18.90;99.90
19037;DHT22;9651;49.138;8.900;2022-09-17T11:18:01;19.10;99.90
19037;DHT22;9651;49.138;8.900;2022-09-17T11:22:09;18.80;99.90
19037;DHT22;9651;49.138;8.900;2022-09-17T11:26:22;19.00;99.90
19037;DHT22;9651;49.138;8.900;2022-09-17T11:30:32;18.50;99.90
19037;DHT22;9651;49.138;8.900;2022-09-17T11:34:37;20.60;99.90
19037;DHT22;9651;49.138;8.900;2022-09-17T11:38:46;22.40;99.90
19037;DHT22;9651;49.138;8.900;2022-09-17T11:42:54;23.40;99.90
19037;DHT22;9651;49.138;8.900;2022-09-17T11:47:04;24.20;99.90
19037;DHT22;9651;49.138;8.900;2022-09-17T11:51:21;22.70;99.90
19037;DHT22;9651;49.138;8.900;2022-09-17T11:55:29;20.60;99.90
19037;DHT22;9651;49.138;8.900;2022-09-17T11:59:36;20.70;99.90
19037;DHT22;9651;49.138;8.900;2022-09-17T12:03:43;21.30;99.90
19037;DHT22;9651;49.138;8.900;2022-09-17T12:07:53;20.70;99.90
19037;DHT22;9651;49.138;8.900;2022-09-17T12:12:02;20.70;99.90
19037;DHT22;9651;49.138;8.900;2022-09-17T12:16:12;22.20;99.90
19037;DHT22;9651;49.138;8.900;2022-09-17T12:20:23;23.60;99.90
19037;DHT22;9651;49.138;8.900;2022-09-17T12:24:28;24.00;99.90
19037;DHT22;9651;49.138;8.900;2022-09-17T12:28:38;24.30;99.90
19037;DHT22;9651;49.138;8.900;2022-09-17T12:32:59;24.10;99.90
19037;DHT22;9651;49.138;8.900;2022-09-17T12:37:11;23.30;99.90
19037;DHT22;9651;49.138;8.900;2022-09-17T12:41:20;22.70;99.90
19037;DHT22;9651;49.138;8.900;2022-09-17T12:45:33;22.10;99.90
19037;DHT22;9651;49.138;8.900;2022-09-17T12:49:55;22.30;99.90
19037;DHT22;9651;49.138;8.900;2022-09-17T12:54:09;22.40;99.90
19037;DHT22;9651;49.138;8.900;2022-09-17T12:58:26;22.30;99.90
19037;DHT22;9651;49.138;8.900;2022-09-17T13:02:37;23.10;99.90
19037;DHT22;9651;49.138;8.900;2022-09-17T13:11:43;22.90;99.90
19037;DHT22;9651;49.138;8.900;2022-09-17T13:15:53;21.70;99.90
19037;DHT22;9651;49.138;8.900;2022-09-17T13:20:02;20.60;99.90
19037;DHT22;9651;49.138;8.900;2022-09-17T13:24:14;19.70;99.90
19037;DHT22;9651;49.138;8.900;2022-09-17T13:28:17;19.10;99.90
19037;DHT22;9651;49.138;8.900;2022-09-17T13:32:42;18.90;99.90
19037;DHT22;9651;49.138;8.900;2022-09-17T13:36:47;18.40;99.90
19037;DHT22;9651;49.138;8.900;2022-09-17T13:40:50;18.20;99.90
19037;DHT22;9651;49.138;8.900;2022-09-17T13:45:01;17.90;99.90
19037;DHT22;9651;49.138;8.900;2022-09-17T13:49:12;17.60;99.90
19037;DHT22;9651;49.138;8.900;2022-09-17T13:53:18;17.40;99.90
19037;DHT22;9651;49.138;8.900;2022-09-17T13:57:26;17.40;99.90
19037;DHT22;9651;49.138;8.900;2022-09-17T14:01:59;17.50;99.90
19037;DHT22;9651;49.138;8.900;2022-09-17T14:10:42;16.90;99.90
19037;DHT22;9651;49.138;8.900;2022-09-17T14:14:50;16.70;99.90
19037;DHT22;9651;49.138;8.900;2022-09-17T14:18:57;16.60;99.90
19037;DHT22;9651;49.138;8.900;2022-09-17T14:23:00;16.50;99.90
19037;DHT22;9651;49.138;8.900;2022-09-17T14:27:20;16.50;99.90
19037;DHT22;9651;49.138;8.900;2022-09-17T14:31:32;16.60;99.90
19037;DHT22;9651;49.138;8.900;2022-09-17T14:35:36;16.60;99.90
19037;DHT22;9651;49.138;8.900;2022-09-17T14:39:40;16.60;99.90
19037;DHT22;9651;49.138;8.900;2022-09-17T14:43:48;16.50;99.90
19037;DHT22;9651;49.138;8.900;2022-09-17T14:52:37;16.70;99.90
19037;DHT22;9651;49.138;8.900;2022-09-17T14:56:45;16.60;99.90
19037;DHT22;9651;49.138;8.900;2022-09-17T15:00:52;16.60;99.90
19037;DHT22;9651;49.138;8.900;2022-09-17T15:04:54;16.60;99.90
19037;DHT22;9651;49.138;8.900;2022-09-17T15:08:56;16.60;99.90
19037;DHT22;9651;49.138;8.900;2022-09-17T15:12:58;16.50;99.90
19037;DHT22;9651;49.138;8.900;2022-09-17T15:17:02;16.60;99.90
19037;DHT22;9651;49.138;8.900;2022-09-17T15:21:16;16.60;99.90
19037;DHT22;9651;49.138;8.900;2022-09-17T15:25:21;16.50;99.90
19037;DHT22;9651;49.138;8.900;2022-09-17T15:29:27;16.50;99.90
19037;DHT22;9651;49.138;8.900;2022-09-17T15:33:32;16.50;99.90
19037;DHT22;9651;49.138;8.900;2022-09-17T15:37:41;16.50;99.90
19037;DHT22;9651;49.138;8.900;2022-09-17T15:41:43;16.50;99.90
19037;DHT22;9651;49.138;8.900;2022-09-17T15:45:55;16.40;99.90
19037;DHT22;9651;49.138;8.900;2022-09-17T15:50:17;16.30;99.90
19037;DHT22;9651;49.138;8.900;2022-09-17T15:54:28;16.20;99.90
19037;DHT22;9651;49.138;8.900;2022-09-17T15:58:35;16.10;99.90
19037;DHT22;9651;49.138;8.900;2022-09-17T16:02:37;16.10;99.90
19037;DHT22;9651;49.138;8.900;2022-09-17T16:06:47;16.10;99.90
19037;DHT22;9651;49.138;8.900;2022-09-17T16:10:50;16.00;99.90
19037;DHT22;9651;49.138;8.900;2022-09-17T16:14:53;15.90;99.90
19037;DHT22;9651;49.138;8.900;2022-09-17T16:18:55;16.00;99.90
19037;DHT22;9651;49.138;8.900;2022-09-17T16:22:58;15.90;99.90
19037;DHT22;9651;49.138;8.900;2022-09-17T16:27:00;15.80;99.90
19037;DHT22;9651;49.138;8.900;2022-09-17T16:31:02;15.70;99.90
19037;DHT22;9651;49.138;8.900;2022-09-17T16:35:07;15.60;99.90
19037;DHT22;9651;49.138;8.900;2022-09-17T16:39:10;15.50;99.90
19037;DHT22;9651;49.138;8.900;2022-09-17T16:43:12;15.30;99.90
19037;DHT22;9651;49.138;8.900;2022-09-17T16:47:14;15.10;99.90
19037;DHT22;9651;49.138;8.900;2022-09-17T16:51:16;15.00;99.90
19037;DHT22;9651;49.138;8.900;2022-09-17T16:55:20;14.90;99.90
19037;DHT22;9651;49.138;8.900;2022-09-17T16:59:22;14.80;99.90
19037;DHT22;9651;49.138;8.900;2022-09-17T17:03:24;14.70;99.90
19037;DHT22;9651;49.138;8.900;2022-09-17T17:07:26;14.50;99.90
19037;DHT22;9651;49.138;8.900;2022-09-17T17:11:29;14.40;99.90
19037;DHT22;9651;49.138;8.900;2022-09-17T17:15:31;14.30;99.90
19037;DHT22;9651;49.138;8.900;2022-09-17T17:19:33;14.20;99.90
19037;DHT22;9651;49.138;8.900;2022-09-17T17:23:36;14.20;99.90
19037;DHT22;9651;49.138;8.900;2022-09-17T17:27:40;14.10;99.90
19037;DHT22;9651;49.138;8.900;2022-09-17T17:31:43;14.00;99.90
19037;DHT22;9651;49.138;8.900;2022-09-17T17:35:45;14.00;99.90
19037;DHT22;9651;49.138;8.900;2022-09-17T17:39:47;13.90;99.90
19037;DHT22;9651;49.138;8.900;2022-09-17T17:43:51;13.70;99.90
19037;DHT22;9651;49.138;8.900;2022-09-17T17:47:53;13.60;99.90
19037;DHT22;9651;49.138;8.900;2022-09-17T17:51:55;13.50;99.90
19037;DHT22;9651;49.138;8.900;2022-09-17T17:55:58;13.50;99.90
19037;DHT22;9651;49.138;8.900;2022-09-17T18:00:02;13.50;99.90
19037;DHT22;9651;49.138;8.900;2022-09-17T18:04:12;13.40;99.90
19037;DHT22;9651;49.138;8.900;2022-09-17T18:08:14;13.30;99.90
19037;DHT22;9651;49.138;8.900;2022-09-17T18:12:16;13.30;99.90
19037;DHT22;9651;49.138;8.900;2022-09-17T18:16:20;13.30;99.90
19037;DHT22;9651;49.138;8.900;2022-09-17T18:20:22;13.30;99.90
19037;DHT22;9651;49.138;8.900;2022-09-17T18:24:24;13.30;99.90
19037;DHT22;9651;49.138;8.900;2022-09-17T18:28:27;13.20;99.90
19037;DHT22;9651;49.138;8.900;2022-09-17T18:32:31;13.20;99.90
19037;DHT22;9651;49.138;8.900;2022-09-17T18:36:34;13.10;99.90
19037;DHT22;9651;49.138;8.900;2022-09-17T18:40:36;13.00;99.90
19037;DHT22;9651;49.138;8.900;2022-09-17T18:44:38;12.90;99.90
19037;DHT22;9651;49.138;8.900;2022-09-17T18:48:42;12.80;99.90
19037;DHT22;9651;49.138;8.900;2022-09-17T18:52:44;12.70;99.90
19037;DHT22;9651;49.138;8.900;2022-09-17T18:56:46;12.70;99.90
19037;DHT22;9651;49.138;8.900;2022-09-17T19:00:48;12.60;99.90
19037;DHT22;9651;49.138;8.900;2022-09-17T19:04:51;12.60;99.90
19037;DHT22;9651;49.138;8.900;2022-09-17T19:08:57;12.40;99.90
19037;DHT22;9651;49.138;8.900;2022-09-17T19:12:59;12.40;99.90
19037;DHT22;9651;49.138;8.900;2022-09-17T19:17:02;12.30;99.90
19037;DHT22;9651;49.138;8.900;2022-09-17T19:21:07;12.20;99.90
19037;DHT22;9651;49.138;8.900;2022-09-17T19:25:10;12.20;99.90
19037;DHT22;9651;49.138;8.900;2022-09-17T19:29:12;12.10;99.90
19037;DHT22;9651;49.138;8.900;2022-09-17T19:33:14;12.10;99.90
19037;DHT22;9651;49.138;8.900;2022-09-17T19:37:17;12.10;99.90
19037;DHT22;9651;49.138;8.900;2022-09-17T19:41:20;12.10;99.90
19037;DHT22;9651;49.138;8.900;2022-09-17T19:45:24;12.10;99.90
19037;DHT22;9651;49.138;8.900;2022-09-17T19:49:26;12.10;99.90
19037;DHT22;9651;49.138;8.900;2022-09-17T19:53:30;12.20;99.90
19037;DHT22;9651;49.138;8.900;2022-09-17T19:57:32;12.20;99.90
19037;DHT22;9651;49.138;8.900;2022-09-17T20:01:34;12.20;99.90
19037;DHT22;9651;49.138;8.900;2022-09-17T20:05:36;12.10;99.90
19037;DHT22;9651;49.138;8.900;2022-09-17T20:09:39;11.90;99.90
19037;DHT22;9651;49.138;8.900;2022-09-17T20:13:41;11.70;99.90
19037;DHT22;9651;49.138;8.900;2022-09-17T20:17:43;11.60;99.90
19037;DHT22;9651;49.138;8.900;2022-09-17T20:21:45;11.60;99.90
19037;DHT22;9651;49.138;8.900;2022-09-17T20:25:51;11.60;99.90
19037;DHT22;9651;49.138;8.900;2022-09-17T20:29:53;11.50;99.90
19037;DHT22;9651;49.138;8.900;2022-09-17T20:33:57;11.60;99.90
19037;DHT22;9651;49.138;8.900;2022-09-17T20:37:59;11.60;99.90
19037;DHT22;9651;49.138;8.900;2022-09-17T20:42:03;11.40;99.90
19037;DHT22;9651;49.138;8.900;2022-09-17T20:46:06;11.40;99.90
19037;DHT22;9651;49.138;8.900;2022-09-17T20:50:08;11.40;99.90
19037;DHT22;9651;49.138;8.900;2022-09-17T20:54:10;11.40;99.90
19037;DHT22;9651;49.138;8.900;2022-09-17T20:58:13;11.40;99.90
19037;DHT22;9651;49.138;8.900;2022-09-17T21:02:20;11.40;99.90
19037;DHT22;9651;49.138;8.900;2022-09-17T21:06:24;11.30;99.90
19037;DHT22;9651;49.138;8.900;2022-09-17T21:10:26;11.20;99.90
19037;DHT22;9651;49.138;8.900;2022-09-17T21:14:29;11.20;99.90
19037;DHT22;9651;49.138;8.900;2022-09-17T21:18:31;11.20;99.90
19037;DHT22;9651;49.138;8.900;2022-09-17T21:22:33;11.20;99.90
19037;DHT22;9651;49.138;8.900;2022-09-17T21:26:35;11.20;99.90
19037;DHT22;9651;49.138;8.900;2022-09-17T21:30:38;11.10;99.90
19037;DHT22;9651;49.138;8.900;2022-09-17T21:34:40;11.10;99.90
19037;DHT22;9651;49.138;8.900;2022-09-17T21:38:42;11.10;99.90
19037;DHT22;9651;49.138;8.900;2022-09-17T21:42:44;11.20;99.90
19037;DHT22;9651;49.138;8.900;2022-09-17T21:46:47;11.20;99.90
19037;DHT22;9651;49.138;8.900;2022-09-17T21:51:03;11.10;99.90
19037;DHT22;9651;49.138;8.900;2022-09-17T21:55:06;11.00;99.90
19037;DHT22;9651;49.138;8.900;2022-09-17T21:59:11;11.00;99.90
19037;DHT22;9651;49.138;8.900;2022-09-17T22:03:14;10.90;99.90
19037;DHT22;9651;49.138;8.900;2022-09-17T22:07:19;10.80;99.90
19037;DHT22;9651;49.138;8.900;2022-09-17T22:11:23;10.90;99.90
19037;DHT22;9651;49.138;8.900;2022-09-17T22:15:25;10.80;99.90
19037;DHT22;9651;49.138;8.900;2022-09-17T22:19:28;10.80;99.90
19037;DHT22;9651;49.138;8.900;2022-09-17T22:23:31;10.80;99.90
19037;DHT22;9651;49.138;8.900;2022-09-17T22:27:33;10.80;99.90
19037;DHT22;9651;49.138;8.900;2022-09-17T22:31:37;10.90;99.90
19037;DHT22;9651;49.138;8.900;2022-09-17T22:35:41;11.00;99.90
19037;DHT22;9651;49.138;8.900;2022-09-17T22:39:42;11.00;99.90
19037;DHT22;9651;49.138;8.900;2022-09-17T22:43:45;11.10;99.90
19037;DHT22;9651;49.138;8.900;2022-09-17T22:47:47;11.10;99.90
19037;DHT22;9651;49.138;8.900;2022-09-17T22:51:50;11.10;99.90
19037;DHT22;9651;49.138;8.900;2022-09-17T22:55:53;11.10;99.90
19037;DHT22;9651;49.138;8.900;2022-09-17T22:59:55;11.20;99.90
19037;DHT22;9651;49.138;8.900;2022-09-17T23:03:58;11.10;99.90
19037;DHT22;9651;49.138;8.900;2022-09-17T23:08:02;11.10;99.90
19037;DHT22;9651;49.138;8.900;2022-09-17T23:12:04;11.10;99.90
19037;DHT22;9651;49.138;8.900;2022-09-17T23:16:07;11.10;99.90
19037;DHT22;9651;49.138;8.900;2022-09-17T23:20:09;11.10;99.90
19037;DHT22;9651;49.138;8.900;2022-09-17T23:24:16;11.00;99.90
19037;DHT22;9651;49.138;8.900;2022-09-17T23:28:19;11.00;99.90
19037;DHT22;9651;49.138;8.900;2022-09-17T23:32:21;11.00;99.90
19037;DHT22;9651;49.138;8.900;2022-09-17T23:36:24;11.00;99.90
19037;DHT22;9651;49.138;8.900;2022-09-17T23:40:27;11.00;99.90
19037;DHT22;9651;49.138;8.900;2022-09-17T23:44:29;11.00;99.90
19037;DHT22;9651;49.138;8.900;2022-09-17T23:48:31;11.00;99.90
19037;DHT22;9651;49.138;8.900;2022-09-17T23:52:33;11.00;99.90
19037;DHT22;9651;49.138;8.900;2022-09-17T23:56:36;11.00;99.90
